Time;durP1;ratioP1;P1;durP2;ratioP2;P2;SDS_P1;SDS_P2;PMS_P1;PMS_P2;Temp;Humidity;BMP_temperature;BMP_pressure;BME280_temperature;BME280_humidity;BME280_pressure;Samples;Min_cycle;Max_cycle;Signal;HPM_P1;HPM_P2
2024/01/25 00:01:07;;;;;;;26.83;4.10;;;;;;;;;;5073250;28;20282;-27
2024/01/25 00:03:32;;;;;;;26.53;3.73;;;;;;;;;;5073251;28;20270;-27
2024/01/25 00:05:57;;;;;;;37.00;4.33;;;;;;;;;;5073344;28;20247;-27
2024/01/25 00:08:23;;;;;;;36.67;4.35;;;;;;;;;;5073563;28;20259;-27
2024/01/25 00:10:48;;;;;;;30.93;4.43;;;;;;;;;;5073307;28;20017;-27
2024/01/25 00:13:13;;;;;;;37.40;4.20;;;;;;;;;;5073252;28;20409;-27
2024/01/25 00:15:38;;;;;;;38.63;4.10;;;;;;;;;;5073809;28;20099;-27
2024/01/25 00:18:03;;;;;;;37.53;4.50;;;;;;;;;;5073114;28;20258;-27
2024/01/25 00:20:29;;;;;;;38.58;4.78;;;;;;;;;;5073736;28;20251;-27
2024/01/25 00:22:54;;;;;;;28.50;4.82;;;;;;;;;;5073676;28;20023;-27
2024/01/25 00:25:19;;;;;;;33.83;4.57;;;;;;;;;;5073187;28;20417;-27
2024/01/25 00:27:44;;;;;;;36.57;5.23;;;;;;;;;;5073681;28;20338;-27
2024/01/25 00:30:10;;;;;;;26.55;3.85;;;;;;;;;;5073092;28;20320;-27
2024/01/25 00:32:35;;;;;;;33.90;4.45;;;;;;;;;;5073090;28;20036;-27
2024/01/25 00:35:00;;;;;;;30.40;4.67;;;;;;;;;;5073060;28;20380;-27
2024/01/25 00:37:26;;;;;;;31.08;4.35;;;;;;;;;;5073278;28;20255;-27
2024/01/25 00:39:51;;;;;;;27.50;3.92;;;;;;;;;;5075958;28;20454;-27
2024/01/25 00:42:17;;;;;;;29.35;4.47;;;;;;;;;;5075617;28;20114;-27
2024/01/25 00:44:42;;;;;;;35.13;4.65;;;;;;;;;;5077491;28;20016;-26
2024/01/25 00:47:08;;;;;;;28.38;4.10;;;;;;;;;;5076947;28;20021;-27
2024/01/25 00:49:33;;;;;;;30.00;3.80;;;;;;;;;;5076798;28;20071;-27
2024/01/25 00:52:02;;;;;;;31.20;4.55;;;;;;;;;;5077375;28;20031;-27
2024/01/25 00:54:27;;;;;;;33.65;3.67;;;;;;;;;;5076741;28;20066;-27
2024/01/25 00:56:52;;;;;;;28.50;4.25;;;;;;;;;;5075404;28;20020;-27
2024/01/25 00:59:18;;;;;;;33.65;4.25;;;;;;;;;;5077168;28;20467;-27
2024/01/25 01:01:46;;;;;;;30.08;4.57;;;;;;;;;;5076674;28;20063;-27
2024/01/25 01:04:11;;;;;;;31.48;4.20;;;;;;;;;;5076784;28;20130;-27
2024/01/25 01:06:36;;;;;;;32.88;4.20;;;;;;;;;;5076471;28;20025;-27
2024/01/25 01:09:01;;;;;;;32.88;4.88;;;;;;;;;;5077018;28;20012;-27
2024/01/25 01:11:27;;;;;;;33.65;4.32;;;;;;;;;;5076351;28;20337;-28
2024/01/25 01:13:52;;;;;;;29.02;4.28;;;;;;;;;;5076260;28;20066;-27
2024/01/25 01:16:19;;;;;;;29.90;3.50;;;;;;;;;;5076366;28;20027;-27
2024/01/25 01:18:44;;;;;;;34.10;5.10;;;;;;;;;;5076492;28;20266;-27
2024/01/25 01:21:10;;;;;;;26.43;3.70;;;;;;;;;;5076214;28;20017;-27
2024/01/25 01:23:35;;;;;;;42.93;4.27;;;;;;;;;;5076683;28;20282;-27
2024/01/25 01:26:00;;;;;;;30.03;4.37;;;;;;;;;;5076185;28;20725;-27
2024/01/25 01:28:25;;;;;;;31.70;4.80;;;;;;;;;;5076669;28;20330;-27
2024/01/25 01:30:50;;;;;;;27.95;4.13;;;;;;;;;;5076049;28;20262;-27
2024/01/25 01:33:16;;;;;;;25.23;3.87;;;;;;;;;;5076641;28;20020;-27
2024/01/25 01:35:41;;;;;;;30.02;3.97;;;;;;;;;;5075987;28;20643;-27
2024/01/25 01:38:06;;;;;;;32.03;4.70;;;;;;;;;;5075966;28;20039;-27
2024/01/25 01:40:31;;;;;;;29.27;3.80;;;;;;;;;;5075860;28;20251;-27
2024/01/25 01:43:01;;;;;;;31.17;4.47;;;;;;;;;;5075792;28;20345;-27
2024/01/25 01:45:26;;;;;;;33.63;4.43;;;;;;;;;;5075814;28;20259;-27
2024/01/25 01:47:51;;;;;;;33.85;5.05;;;;;;;;;;5076052;28;20425;-27
2024/01/25 01:50:17;;;;;;;37.40;4.97;;;;;;;;;;5075151;28;20452;-27
2024/01/25 01:52:42;;;;;;;30.88;4.68;;;;;;;;;;5075679;28;20099;-27
2024/01/25 01:55:08;;;;;;;31.73;4.20;;;;;;;;;;5075651;28;20066;-27
2024/01/25 01:57:33;;;;;;;41.50;5.70;;;;;;;;;;5075834;28;20020;-27
2024/01/25 01:59:58;;;;;;;36.75;4.05;;;;;;;;;;5076098;28;20097;-27
2024/01/25 02:02:25;;;;;;;32.40;4.38;;;;;;;;;;5075812;28;20399;-27
2024/01/25 02:04:50;;;;;;;44.20;5.40;;;;;;;;;;5075489;28;20016;-27
2024/01/25 02:07:15;;;;;;;28.53;3.97;;;;;;;;;;5075358;28;20070;-27
2024/01/25 02:09:40;;;;;;;26.90;4.45;;;;;;;;;;5075388;28;20330;-27
2024/01/25 02:12:06;;;;;;;31.65;4.15;;;;;;;;;;5075510;28;20012;-33
2024/01/25 02:14:32;;;;;;;31.55;5.10;;;;;;;;;;5075887;28;20052;-27
2024/01/25 02:16:57;;;;;;;43.25;6.18;;;;;;;;;;5075513;28;20044;-27
2024/01/25 02:19:22;;;;;;;28.53;4.17;;;;;;;;;;5075473;28;20024;-27
2024/01/25 02:21:49;;;;;;;36.70;5.37;;;;;;;;;;5075123;28;20662;-27
2024/01/25 02:24:14;;;;;;;37.67;4.30;;;;;;;;;;5075663;28;20251;-28
2024/01/25 02:26:39;;;;;;;32.27;4.27;;;;;;;;;;5073884;28;20067;-27
2024/01/25 02:29:05;;;;;;;36.40;4.07;;;;;;;;;;5075037;28;20239;-28
2024/01/25 02:31:30;;;;;;;37.05;4.55;;;;;;;;;;5073109;28;20263;-28
2024/01/25 02:33:56;;;;;;;31.20;3.93;;;;;;;;;;5074011;28;20043;-28
2024/01/25 02:36:24;;;;;;;35.25;4.65;;;;;;;;;;5074872;28;20263;-28
2024/01/25 02:38:49;;;;;;;35.53;4.72;;;;;;;;;;5075341;28;20032;-28
2024/01/25 02:41:14;;;;;;;33.53;4.43;;;;;;;;;;5073488;28;20361;-28
2024/01/25 02:43:39;;;;;;;33.85;4.35;;;;;;;;;;5073409;28;20282;-28
2024/01/25 02:46:05;;;;;;;35.65;4.63;;;;;;;;;;5074689;28;20020;-28
2024/01/25 02:48:31;;;;;;;33.97;4.55;;;;;;;;;;5075173;28;20024;-28
2024/01/25 02:50:56;;;;;;;24.40;4.38;;;;;;;;;;5074608;28;20021;-28
2024/01/25 02:53:22;;;;;;;32.80;4.38;;;;;;;;;;5075059;28;20023;-28
2024/01/25 02:55:47;;;;;;;31.60;4.50;;;;;;;;;;5075081;28;20078;-28
2024/01/25 02:58:12;;;;;;;39.80;4.43;;;;;;;;;;5074449;28;20262;-28
2024/01/25 03:00:37;;;;;;;32.37;4.57;;;;;;;;;;5074865;28;20020;-28
2024/01/25 03:03:02;;;;;;;31.93;4.67;;;;;;;;;;5073212;28;20325;-28
2024/01/25 03:05:28;;;;;;;37.47;4.25;;;;;;;;;;5074805;28;20256;-28
2024/01/25 03:07:53;;;;;;;35.90;4.40;;;;;;;;;;5074763;28;20004;-28
2024/01/25 03:10:18;;;;;;;38.72;5.18;;;;;;;;;;5074423;28;20452;-28
2024/01/25 03:12:43;;;;;;;32.90;4.20;;;;;;;;;;5074100;28;20023;-28
2024/01/25 03:15:10;;;;;;;29.27;4.07;;;;;;;;;;5074347;28;20448;-28
2024/01/25 03:17:35;;;;;;;31.38;4.90;;;;;;;;;;5074275;28;20654;-28
2024/01/25 03:20:00;;;;;;;33.72;4.60;;;;;;;;;;5074541;28;20068;-28
2024/01/25 03:22:26;;;;;;;35.10;4.72;;;;;;;;;;5074192;28;20048;-28
2024/01/25 03:24:51;;;;;;;38.17;4.32;;;;;;;;;;5074376;28;20025;-28
2024/01/25 03:27:16;;;;;;;28.67;3.80;;;;;;;;;;5073818;28;20096;-28
2024/01/25 03:29:42;;;;;;;27.40;4.17;;;;;;;;;;5074356;28;20254;-28
2024/01/25 03:32:07;;;;;;;24.58;4.70;;;;;;;;;;5074074;28;20285;-28
2024/01/25 03:34:33;;;;;;;33.53;4.57;;;;;;;;;;5073715;28;20047;-28
2024/01/25 03:36:58;;;;;;;33.72;4.78;;;;;;;;;;5074021;28;20051;-28
2024/01/25 03:39:23;;;;;;;34.07;5.33;;;;;;;;;;5074186;28;20095;-28
2024/01/25 03:41:48;;;;;;;30.33;4.40;;;;;;;;;;5073565;28;20259;-28
2024/01/25 03:44:13;;;;;;;28.42;4.05;;;;;;;;;;5073577;28;20350;-28
2024/01/25 03:46:38;;;;;;;21.40;3.63;;;;;;;;;;5073564;28;20380;-28
2024/01/25 03:49:04;;;;;;;32.67;4.50;;;;;;;;;;5074026;28;20287;-28
2024/01/25 03:51:29;;;;;;;29.15;3.97;;;;;;;;;;5073788;28;20722;-28
2024/01/25 03:53:57;;;;;;;27.85;4.05;;;;;;;;;;5073454;28;20024;-28
2024/01/25 03:56:23;;;;;;;35.22;4.65;;;;;;;;;;5074001;28;20016;-28
2024/01/25 03:58:48;;;;;;;29.23;4.40;;;;;;;;;;5073973;28;20158;-28
2024/01/25 04:01:13;;;;;;;25.90;4.38;;;;;;;;;;5073281;28;20044;-28
2024/01/25 04:03:39;;;;;;;26.63;3.83;;;;;;;;;;5073752;28;20033;-28
2024/01/25 04:06:04;;;;;;;24.55;4.68;;;;;;;;;;5073243;28;20270;-28
2024/01/25 04:08:29;;;;;;;35.13;4.63;;;;;;;;;;5073749;28;20020;-28
2024/01/25 04:10:54;;;;;;;25.63;3.87;;;;;;;;;;5073511;28;20096;-28
2024/01/25 04:13:20;;;;;;;37.55;4.95;;;;;;;;;;5072869;28;20269;-28
2024/01/25 04:15:45;;;;;;;33.83;4.40;;;;;;;;;;5073176;28;20021;-28
2024/01/25 04:18:10;;;;;;;27.08;4.55;;;;;;;;;;5073223;28;20250;-28
2024/01/25 04:20:35;;;;;;;36.97;5.07;;;;;;;;;;5073184;28;20020;-28
2024/01/25 04:23:00;;;;;;;37.97;4.07;;;;;;;;;;5073697;28;20024;-28
2024/01/25 04:25:26;;;;;;;38.10;4.55;;;;;;;;;;5073191;28;20074;-28
2024/01/25 04:27:51;;;;;;;33.38;4.25;;;;;;;;;;5072100;28;20108;-28
2024/01/25 04:30:16;;;;;;;34.40;4.40;;;;;;;;;;5073284;28;20020;-28
2024/01/25 04:32:41;;;;;;;29.23;4.53;;;;;;;;;;5073088;28;20374;-28
2024/01/25 04:35:08;;;;;;;29.40;4.13;;;;;;;;;;5073314;28;20012;-28
2024/01/25 04:37:33;;;;;;;31.05;4.35;;;;;;;;;;5073075;28;20387;-28
2024/01/25 04:39:59;;;;;;;25.90;3.67;;;;;;;;;;5073024;28;20099;-28
2024/01/25 04:42:24;;;;;;;34.40;4.27;;;;;;;;;;5072971;28;20432;-28
2024/01/25 04:44:49;;;;;;;37.25;4.78;;;;;;;;;;5072943;28;20358;-28
2024/01/25 04:47:14;;;;;;;30.40;3.83;;;;;;;;;;5072961;28;20456;-28
2024/01/25 04:49:40;;;;;;;37.63;4.85;;;;;;;;;;5071710;28;20317;-28
2024/01/25 04:52:05;;;;;;;33.03;4.32;;;;;;;;;;5072939;28;20020;-28
2024/01/25 04:54:30;;;;;;;37.67;3.92;;;;;;;;;;5073072;28;20017;-28
2024/01/25 04:56:55;;;;;;;31.73;4.13;;;;;;;;;;5073405;28;20039;-28
2024/01/25 04:59:21;;;;;;;24.35;3.80;;;;;;;;;;5073124;28;20300;-28
2024/01/25 05:01:46;;;;;;;29.37;4.97;;;;;;;;;;5072926;28;20041;-28
2024/01/25 05:04:11;;;;;;;35.00;5.13;;;;;;;;;;5072808;28;20312;-28
2024/01/25 05:06:36;;;;;;;33.90;4.57;;;;;;;;;;5073289;28;20070;-28
2024/01/25 05:09:02;;;;;;;37.70;4.45;;;;;;;;;;5072728;28;20270;-28
2024/01/25 05:11:27;;;;;;;29.83;4.20;;;;;;;;;;5073135;28;20028;-28
2024/01/25 05:13:52;;;;;;;32.47;4.15;;;;;;;;;;5072624;28;20020;-28
2024/01/25 05:16:17;;;;;;;29.60;4.17;;;;;;;;;;5073194;28;20017;-28
2024/01/25 05:18:42;;;;;;;33.90;5.23;;;;;;;;;;5072646;28;20255;-28
2024/01/25 05:21:07;;;;;;;35.50;4.60;;;;;;;;;;5072974;28;20251;-28
2024/01/25 05:23:33;;;;;;;35.23;4.90;;;;;;;;;;5072530;28;20274;-28
2024/01/25 05:25:58;;;;;;;36.38;4.10;;;;;;;;;;5074218;28;20286;-28
2024/01/25 05:28:24;;;;;;;36.17;4.45;;;;;;;;;;5076336;28;20423;-28
2024/01/25 05:30:49;;;;;;;30.42;4.07;;;;;;;;;;5076302;28;20012;-28
2024/01/25 05:33:14;;;;;;;26.52;4.55;;;;;;;;;;5076062;28;20028;-28
2024/01/25 05:35:40;;;;;;;29.35;4.20;;;;;;;;;;5076037;28;20020;-28
2024/01/25 05:38:05;;;;;;;30.93;4.77;;;;;;;;;;5076511;28;20027;-29
2024/01/25 05:40:30;;;;;;;40.03;4.97;;;;;;;;;;5075940;28;20318;-28
2024/01/25 05:42:55;;;;;;;30.33;5.97;;;;;;;;;;5075814;28;20267;-28
2024/01/25 05:45:21;;;;;;;38.10;4.97;;;;;;;;;;5075817;28;20271;-28
2024/01/25 05:47:46;;;;;;;32.45;4.22;;;;;;;;;;5075775;28;20094;-28
2024/01/25 05:50:12;;;;;;;34.92;4.68;;;;;;;;;;5076041;28;20020;-28
2024/01/25 05:52:37;;;;;;;32.53;4.53;;;;;;;;;;5076269;28;20021;-29
2024/01/25 05:55:03;;;;;;;39.42;5.15;;;;;;;;;;5075935;28;20046;-28
2024/01/25 05:57:28;;;;;;;34.05;5.30;;;;;;;;;;5075836;28;20020;-28
2024/01/25 05:59:53;;;;;;;30.50;4.40;;;;;;;;;;5076068;28;20024;-28
2024/01/25 06:02:19;;;;;;;28.47;4.60;;;;;;;;;;5075462;28;20287;-28
2024/01/25 06:04:44;;;;;;;36.50;4.72;;;;;;;;;;5076008;28;20726;-28
2024/01/25 06:07:09;;;;;;;31.67;4.65;;;;;;;;;;5075734;28;20455;-28
2024/01/25 06:09:34;;;;;;;31.52;4.60;;;;;;;;;;5075678;28;20525;-28
2024/01/25 06:11:59;;;;;;;35.83;5.03;;;;;;;;;;5075280;28;20013;-28
2024/01/25 06:14:25;;;;;;;32.73;4.30;;;;;;;;;;5075283;28;20762;-28
2024/01/25 06:16:50;;;;;;;35.95;4.93;;;;;;;;;;5075818;28;20258;-28
2024/01/25 06:19:15;;;;;;;32.30;4.23;;;;;;;;;;5075771;28;20069;-28
2024/01/25 06:21:40;;;;;;;34.83;4.50;;;;;;;;;;5075597;28;20266;-27
2024/01/25 06:24:06;;;;;;;44.40;5.33;;;;;;;;;;5075580;28;20052;-28
2024/01/25 06:26:31;;;;;;;32.83;4.35;;;;;;;;;;5074994;28;20725;-28
2024/01/25 06:28:59;;;;;;;34.30;5.15;;;;;;;;;;5075691;28;20517;-28
2024/01/25 06:31:25;;;;;;;31.88;4.95;;;;;;;;;;5074942;28;20012;-28
2024/01/25 06:33:52;;;;;;;37.42;5.00;;;;;;;;;;5075423;28;20017;-27
2024/01/25 06:36:17;;;;;;;27.95;4.32;;;;;;;;;;5074868;28;20459;-27
2024/01/25 06:38:42;;;;;;;38.73;4.70;;;;;;;;;;5075291;28;20095;-27
2024/01/25 06:41:08;;;;;;;32.65;4.82;;;;;;;;;;5074943;28;20614;-27
2024/01/25 06:43:33;;;;;;;40.50;4.97;;;;;;;;;;5074600;28;20017;-27
2024/01/25 06:45:58;;;;;;;38.10;4.70;;;;;;;;;;5074889;28;20039;-28
2024/01/25 06:48:23;;;;;;;36.93;5.77;;;;;;;;;;5075041;28;20013;-27
2024/01/25 06:50:50;;;;;;;34.43;4.87;;;;;;;;;;5074663;28;20595;-27
2024/01/25 06:53:16;;;;;;;31.17;3.85;;;;;;;;;;5074757;28;20274;-27
2024/01/25 06:55:41;;;;;;;33.00;5.20;;;;;;;;;;5074595;28;20071;-28
2024/01/25 06:58:06;;;;;;;31.50;5.03;;;;;;;;;;5074456;28;20380;-27
2024/01/25 07:00:31;;;;;;;29.80;4.73;;;;;;;;;;5074302;28;20273;-27
2024/01/25 07:02:56;;;;;;;33.77;4.97;;;;;;;;;;5074010;28;20283;-27
2024/01/25 07:05:21;;;;;;;30.70;5.10;;;;;;;;;;5074770;28;20333;-27
2024/01/25 07:07:47;;;;;;;34.80;5.13;;;;;;;;;;5074191;28;20383;-27
2024/01/25 07:10:12;;;;;;;28.97;5.10;;;;;;;;;;5074123;28;20273;-27
2024/01/25 07:12:37;;;;;;;29.70;4.65;;;;;;;;;;5074232;28;20273;-27
2024/01/25 07:15:02;;;;;;;42.70;6.30;;;;;;;;;;5074006;28;20487;-27
2024/01/25 07:17:28;;;;;;;30.92;4.57;;;;;;;;;;5074303;28;20254;-27
2024/01/25 07:19:53;;;;;;;34.53;4.80;;;;;;;;;;5074159;28;20016;-27
2024/01/25 07:22:18;;;;;;;36.10;5.10;;;;;;;;;;5073835;28;20070;-27
2024/01/25 07:24:43;;;;;;;39.42;5.63;;;;;;;;;;5074322;28;20243;-27
2024/01/25 07:27:10;;;;;;;32.03;5.13;;;;;;;;;;5073835;28;20051;-28
2024/01/25 07:29:35;;;;;;;34.28;6.05;;;;;;;;;;5074071;28;20289;-27
2024/01/25 07:32:01;;;;;;;27.42;5.10;;;;;;;;;;5074293;28;20024;-27
2024/01/25 07:34:26;;;;;;;30.05;4.35;;;;;;;;;;5073669;28;20024;-28
2024/01/25 07:36:51;;;;;;;30.70;4.87;;;;;;;;;;5073616;28;20476;-27
2024/01/25 07:39:17;;;;;;;38.17;5.50;;;;;;;;;;5073614;28;20340;-27
2024/01/25 07:41:42;;;;;;;40.58;5.22;;;;;;;;;;5073771;28;20251;-27
2024/01/25 07:44:07;;;;;;;32.17;5.30;;;;;;;;;;5073740;28;20044;-27
2024/01/25 07:46:32;;;;;;;37.97;5.57;;;;;;;;;;5072950;28;20274;-27
2024/01/25 07:48:57;;;;;;;32.80;5.28;;;;;;;;;;5072731;28;20017;-27
2024/01/25 07:51:23;;;;;;;31.83;4.95;;;;;;;;;;5071800;28;20017;-27
2024/01/25 07:53:48;;;;;;;34.10;5.93;;;;;;;;;;5073404;28;20017;-27
2024/01/25 07:56:13;;;;;;;36.07;5.03;;;;;;;;;;5073242;28;20016;-27
2024/01/25 07:58:39;;;;;;;32.58;5.03;;;;;;;;;;5073066;28;20269;-27
2024/01/25 08:01:07;;;;;;;31.08;4.88;;;;;;;;;;5073200;28;20130;-28
2024/01/25 08:03:32;;;;;;;36.88;5.20;;;;;;;;;;5073282;28;20082;-27
2024/01/25 08:05:58;;;;;;;33.42;6.50;;;;;;;;;;5073613;28;20016;-27
2024/01/25 08:08:24;;;;;;;27.05;5.32;;;;;;;;;;5073803;28;20013;-28
2024/01/25 08:10:49;;;;;;;36.20;5.60;;;;;;;;;;5073349;28;20582;-28
2024/01/25 08:13:14;;;;;;;32.95;5.55;;;;;;;;;;5071872;28;20263;-28
2024/01/25 08:15:39;;;;;;;42.70;6.47;;;;;;;;;;5073815;28;20021;-27
2024/01/25 08:18:04;;;;;;;33.90;6.47;;;;;;;;;;5073222;28;20289;-27
2024/01/25 08:20:30;;;;;;;41.45;6.85;;;;;;;;;;5073193;28;20016;-27
2024/01/25 08:22:55;;;;;;;41.58;7.72;;;;;;;;;;5071828;28;20066;-27
2024/01/25 08:25:20;;;;;;;32.72;6.28;;;;;;;;;;5073726;28;20025;-27
2024/01/25 08:27:45;;;;;;;39.10;7.43;;;;;;;;;;5073442;28;20021;-27
2024/01/25 08:30:11;;;;;;;46.37;8.40;;;;;;;;;;5073595;28;20044;-27
2024/01/25 08:32:36;;;;;;;38.88;7.00;;;;;;;;;;5073047;28;20300;-28
2024/01/25 08:35:01;;;;;;;39.65;7.50;;;;;;;;;;5073092;28;20050;-27
2024/01/25 08:37:27;;;;;;;41.20;8.17;;;;;;;;;;5073056;28;20056;-27
2024/01/25 08:39:52;;;;;;;40.13;7.25;;;;;;;;;;5071760;28;20277;-27
2024/01/25 08:42:18;;;;;;;29.13;6.87;;;;;;;;;;5072960;28;20468;-27
2024/01/25 08:44:49;;;;;;;39.75;8.93;;;;;;;;;;5073222;28;20610;-28
2024/01/25 08:47:17;;;;;;;36.53;8.20;;;;;;;;;;5073244;28;20456;-28
2024/01/25 08:49:43;;;;;;;37.28;7.72;;;;;;;;;;5072948;28;20089;-27
2024/01/25 08:52:08;;;;;;;31.27;7.93;;;;;;;;;;5072959;28;20460;-27
2024/01/25 08:54:33;;;;;;;31.40;7.63;;;;;;;;;;5073439;28;20024;-27
2024/01/25 08:56:59;;;;;;;39.47;7.75;;;;;;;;;;5072834;28;20668;-27
2024/01/25 08:59:24;;;;;;;42.15;8.07;;;;;;;;;;5073371;28;20032;-27
2024/01/25 09:01:49;;;;;;;39.87;8.27;;;;;;;;;;5075347;28;20506;-27
2024/01/25 09:04:15;;;;;;;38.40;7.87;;;;;;;;;;5076910;28;20274;-28
2024/01/25 09:06:40;;;;;;;41.03;8.30;;;;;;;;;;5077164;28;20568;-28
2024/01/25 09:09:05;;;;;;;35.60;7.88;;;;;;;;;;5076803;28;20021;-27
2024/01/25 09:11:31;;;;;;;38.30;7.13;;;;;;;;;;5076534;28;20044;-28
2024/01/25 09:13:56;;;;;;;35.50;5.93;;;;;;;;;;5076360;28;20395;-37
2024/01/25 09:16:22;;;;;;;39.47;6.68;;;;;;;;;;5076646;28;20340;-27
2024/01/25 09:18:47;;;;;;;32.08;6.50;;;;;;;;;;5076568;28;20032;-28
2024/01/25 09:21:12;;;;;;;27.08;5.97;;;;;;;;;;5076309;28;20021;-27
2024/01/25 09:23:37;;;;;;;27.05;6.25;;;;;;;;;;5076139;28;20211;-27
2024/01/25 09:26:03;;;;;;;34.90;6.63;;;;;;;;;;5076149;28;20020;-27
2024/01/25 09:28:28;;;;;;;31.55;6.32;;;;;;;;;;5076543;28;20247;-27
2024/01/25 09:30:53;;;;;;;33.33;5.30;;;;;;;;;;5076105;28;20013;-28
2024/01/25 09:33:18;;;;;;;42.95;6.18;;;;;;;;;;5075929;28;20021;-28
2024/01/25 09:35:46;;;;;;;32.22;6.25;;;;;;;;;;5075940;28;20066;-28
2024/01/25 09:38:12;;;;;;;36.10;5.40;;;;;;;;;;5076098;28;20020;-28
2024/01/25 09:40:37;;;;;;;27.00;5.63;;;;;;;;;;5075810;28;20040;-27
2024/01/25 09:43:02;;;;;;;32.22;6.07;;;;;;;;;;5076128;28;20052;-28
2024/01/25 09:45:30;;;;;;;34.72;6.47;;;;;;;;;;5075802;28;20017;-28
2024/01/25 09:47:55;;;;;;;30.83;5.88;;;;;;;;;;5075666;28;20046;-27
2024/01/25 09:50:21;;;;;;;34.05;6.05;;;;;;;;;;5076123;28;20483;-28
2024/01/25 09:52:50;;;;;;;36.75;6.85;;;;;;;;;;5076011;28;20497;-28
2024/01/25 09:55:19;;;;;;;36.28;6.55;;;;;;;;;;5075647;28;20082;-28
2024/01/25 09:57:46;;;;;;;31.85;5.70;;;;;;;;;;5074318;28;20024;-27
2024/01/25 10:00:11;;;;;;;34.33;6.57;;;;;;;;;;5075489;28;20016;-27
2024/01/25 10:02:37;;;;;;;34.70;7.32;;;;;;;;;;5073908;28;20055;-27
2024/01/25 10:05:02;;;;;;;30.33;5.88;;;;;;;;;;5076012;28;20016;-27
2024/01/25 10:07:37;;;;;;;34.38;6.30;;;;;;;;;;5075370;28;20023;-28
2024/01/25 10:10:04;;;;;;;37.78;7.40;;;;;;;;;;5075379;28;20422;-27
2024/01/25 10:12:29;;;;;;;35.30;6.80;;;;;;;;;;5075093;28;20025;-27
2024/01/25 10:14:54;;;;;;;32.33;6.72;;;;;;;;;;5075302;28;20086;-28
2024/01/25 10:17:19;;;;;;;28.80;6.40;;;;;;;;;;5075745;28;20062;-28
2024/01/25 10:19:44;;;;;;;28.13;6.10;;;;;;;;;;5075078;28;20096;-28
2024/01/25 10:22:12;;;;;;;23.63;5.15;;;;;;;;;;5073687;28;20407;-28
2024/01/25 10:24:38;;;;;;;31.63;5.30;;;;;;;;;;5074164;28;20020;-27
2024/01/25 10:27:03;;;;;;;39.63;6.68;;;;;;;;;;5074522;28;20032;-28
2024/01/25 10:29:28;;;;;;;31.88;5.75;;;;;;;;;;5074134;28;20017;-27
2024/01/25 10:31:54;;;;;;;31.05;6.55;;;;;;;;;;5074334;28;20021;-28
2024/01/25 10:34:20;;;;;;;40.85;6.70;;;;;;;;;;5074797;28;20013;-28
2024/01/25 10:36:45;;;;;;;38.70;5.63;;;;;;;;;;5075373;28;20020;-28
2024/01/25 10:39:11;;;;;;;31.02;6.00;;;;;;;;;;5075162;28;20026;-28
2024/01/25 10:41:36;;;;;;;41.42;6.60;;;;;;;;;;5075091;28;20024;-27
2024/01/25 10:44:02;;;;;;;27.17;5.72;;;;;;;;;;5074913;28;20024;-27
2024/01/25 10:46:28;;;;;;;31.92;6.53;;;;;;;;;;5074574;28;20023;-27
2024/01/25 10:48:57;;;;;;;35.47;6.25;;;;;;;;;;5074880;28;20401;-27
2024/01/25 10:51:22;;;;;;;35.58;6.78;;;;;;;;;;5074790;28;20027;-29
2024/01/25 10:53:48;;;;;;;34.15;6.68;;;;;;;;;;5074444;28;20028;-27
2024/01/25 10:56:13;;;;;;;36.35;6.07;;;;;;;;;;5074471;28;20099;-28
2024/01/25 10:58:40;;;;;;;40.72;6.25;;;;;;;;;;5074405;28;20020;-27
2024/01/25 11:01:10;;;;;;;34.25;5.80;;;;;;;;;;5074191;28;20086;-27
2024/01/25 11:03:35;;;;;;;33.75;6.65;;;;;;;;;;5074528;28;20187;-27
2024/01/25 11:06:09;;;;;;;40.78;6.78;;;;;;;;;;5074755;28;20111;-28
2024/01/25 11:08:34;;;;;;;;;;;;;;;;;;5074863;28;20020;-27
2024/01/25 11:10:59;;;;;;;29.80;6.72;;;;;;;;;;5072901;28;20405;-28
2024/01/25 11:13:26;;;;;;;41.63;6.00;;;;;;;;;;5074576;28;20025;-27
2024/01/25 11:15:51;;;;;;;37.40;6.60;;;;;;;;;;5074273;28;20021;-28
2024/01/25 11:18:17;;;;;;;35.40;5.93;;;;;;;;;;5073598;28;20494;-27
2024/01/25 11:20:42;;;;;;;37.80;6.63;;;;;;;;;;5073891;28;20029;-28
2024/01/25 11:23:09;;;;;;;37.33;6.07;;;;;;;;;;5073849;28;20020;-27
2024/01/25 11:25:35;;;;;;;34.53;5.82;;;;;;;;;;5073947;28;20262;-28
2024/01/25 11:28:02;;;;;;;29.38;5.78;;;;;;;;;;5074181;28;20023;-27
2024/01/25 11:30:28;;;;;;;33.83;5.75;;;;;;;;;;5073036;28;20025;-27
2024/01/25 11:32:53;;;;;;;32.17;5.65;;;;;;;;;;5072596;28;20078;-27
2024/01/25 11:35:18;;;;;;;39.30;6.20;;;;;;;;;;5070319;28;20016;-27
2024/01/25 11:37:46;;;;;;;32.20;5.35;;;;;;;;;;5071530;28;20096;-28
2024/01/25 11:40:12;;;;;;;35.00;5.45;;;;;;;;;;5071393;28;20099;-32
2024/01/25 11:42:38;;;;;;;34.30;6.07;;;;;;;;;;5071704;28;20025;-28
2024/01/25 11:45:05;;;;;;;35.28;6.22;;;;;;;;;;5071852;28;20020;-27
2024/01/25 11:47:30;;;;;;;50.67;7.20;;;;;;;;;;5071392;28;20025;-28
2024/01/25 11:49:55;;;;;;;44.30;6.70;;;;;;;;;;5073099;28;20372;-28
2024/01/25 11:52:20;;;;;;;34.50;5.73;;;;;;;;;;5073556;28;20024;-27
2024/01/25 11:54:46;;;;;;;34.15;6.80;;;;;;;;;;5073707;28;20266;-28
2024/01/25 11:57:11;;;;;;;34.03;5.85;;;;;;;;;;5073729;28;20103;-27
2024/01/25 11:59:36;;;;;;;35.88;6.88;;;;;;;;;;5073985;28;20059;-28
2024/01/25 12:02:02;;;;;;;26.10;5.25;;;;;;;;;;5073223;28;20050;-32
2024/01/25 12:04:27;;;;;;;38.40;6.50;;;;;;;;;;5073376;28;20015;-28
2024/01/25 12:06:53;;;;;;;40.67;5.68;;;;;;;;;;5073551;28;20020;-27
2024/01/25 12:09:18;;;;;;;37.83;5.97;;;;;;;;;;5073287;28;20024;-28
2024/01/25 12:11:43;;;;;;;36.78;7.05;;;;;;;;;;5073477;28;20364;-27
2024/01/25 12:14:09;;;;;;;38.53;6.03;;;;;;;;;;5072951;28;20422;-28
2024/01/25 12:16:34;;;;;;;44.13;6.03;;;;;;;;;;5072924;28;20298;-28
2024/01/25 12:18:59;;;;;;;27.27;5.35;;;;;;;;;;5073165;28;20486;-27
2024/01/25 12:21:24;;;;;;;37.80;6.72;;;;;;;;;;5073420;28;20025;-28
2024/01/25 12:23:50;;;;;;;30.63;5.77;;;;;;;;;;5073299;28;20463;-27
2024/01/25 12:26:16;;;;;;;36.60;6.28;;;;;;;;;;5073215;28;20258;-28
2024/01/25 12:28:41;;;;;;;34.75;5.72;;;;;;;;;;5072911;28;20099;-27
2024/01/25 12:31:07;;;;;;;30.23;5.70;;;;;;;;;;5072696;28;20048;-28
2024/01/25 12:33:32;;;;;;;34.70;6.25;;;;;;;;;;5072915;28;20258;-28
2024/01/25 12:36:01;;;;;;;38.33;5.82;;;;;;;;;;5075913;28;20083;-28
2024/01/25 12:38:27;;;;;;;40.17;5.78;;;;;;;;;;5077138;28;20044;-28
2024/01/25 12:40:52;;;;;;;24.98;6.03;;;;;;;;;;5077382;28;20113;-28
2024/01/25 12:43:18;;;;;;;35.80;6.25;;;;;;;;;;5077021;28;20028;-27
2024/01/25 12:45:44;;;;;;;35.78;6.50;;;;;;;;;;5077251;28;20009;-28
2024/01/25 12:48:09;;;;;;;34.13;6.10;;;;;;;;;;5077093;28;20471;-27
2024/01/25 12:50:35;;;;;;;35.60;6.03;;;;;;;;;;5076853;28;20051;-28
2024/01/25 12:53:01;;;;;;;28.90;5.80;;;;;;;;;;5076863;28;20032;-27
2024/01/25 12:55:27;;;;;;;28.55;5.95;;;;;;;;;;5077073;28;20020;-28
2024/01/25 12:57:52;;;;;;;41.80;6.18;;;;;;;;;;5077242;28;20013;-28
2024/01/25 13:00:17;;;;;;;30.67;5.90;;;;;;;;;;5076768;28;20431;-28
2024/01/25 13:02:43;;;;;;;43.60;6.35;;;;;;;;;;5076358;28;20291;-28
2024/01/25 13:05:08;;;;;;;33.60;6.07;;;;;;;;;;5076890;28;20016;-28
2024/01/25 13:07:33;;;;;;;43.08;6.55;;;;;;;;;;5076538;28;20024;-28
2024/01/25 13:09:58;;;;;;;40.50;6.28;;;;;;;;;;5076753;28;20020;-28
2024/01/25 13:12:23;;;;;;;31.08;5.72;;;;;;;;;;5076541;28;20024;-28
2024/01/25 13:14:49;;;;;;;33.50;6.47;;;;;;;;;;5076944;28;20027;-28
2024/01/25 13:17:14;;;;;;;34.10;6.13;;;;;;;;;;5075115;28;20285;-28
2024/01/25 13:19:39;;;;;;;37.93;6.57;;;;;;;;;;5076560;28;20339;-28
2024/01/25 13:22:04;;;;;;;37.27;6.30;;;;;;;;;;5076803;28;20251;-28
2024/01/25 13:24:29;;;;;;;40.88;7.32;;;;;;;;;;5076460;28;20255;-28
2024/01/25 13:26:55;;;;;;;42.17;7.13;;;;;;;;;;5076161;28;20020;-28
2024/01/25 13:29:20;;;;;;;37.90;6.65;;;;;;;;;;5076695;28;20308;-28
2024/01/25 13:31:45;;;;;;;35.63;6.23;;;;;;;;;;5076703;28;20009;-28
2024/01/25 13:34:10;;;;;;;33.07;6.90;;;;;;;;;;5076020;28;20259;-28
2024/01/25 13:36:35;;;;;;;34.33;6.53;;;;;;;;;;5075649;28;20269;-28
2024/01/25 13:39:00;;;;;;;31.80;6.27;;;;;;;;;;5075592;28;20266;-28
2024/01/25 13:41:26;;;;;;;42.47;6.97;;;;;;;;;;5076505;28;20259;-28
2024/01/25 13:43:51;;;;;;;32.60;7.57;;;;;;;;;;5076208;28;20317;-29
2024/01/25 13:46:17;;;;;;;31.45;6.72;;;;;;;;;;5074596;28;20086;-28
2024/01/25 13:48:42;;;;;;;33.07;6.83;;;;;;;;;;5075389;28;20093;-28
2024/01/25 13:51:07;;;;;;;34.87;6.57;;;;;;;;;;5075607;28;20267;-28
2024/01/25 13:53:34;;;;;;;40.22;6.78;;;;;;;;;;5075951;28;20286;-28
2024/01/25 13:55:59;;;;;;;31.75;6.30;;;;;;;;;;5075781;28;20047;-28
2024/01/25 13:58:24;;;;;;;29.03;5.90;;;;;;;;;;5075655;28;20017;-28
2024/01/25 14:00:49;;;;;;;42.28;6.82;;;;;;;;;;5075910;28;20413;-28
2024/01/25 14:03:15;;;;;;;40.60;7.47;;;;;;;;;;5075499;28;20467;-28
2024/01/25 14:05:40;;;;;;;35.60;5.90;;;;;;;;;;5075544;28;20254;-28
2024/01/25 14:08:05;;;;;;;42.17;6.93;;;;;;;;;;5075973;28;20019;-28
2024/01/25 14:10:32;;;;;;;32.55;7.32;;;;;;;;;;5075451;28;20247;-28
2024/01/25 14:12:57;;;;;;;39.22;7.28;;;;;;;;;;5075165;28;20031;-28
2024/01/25 14:15:22;;;;;;;42.03;7.03;;;;;;;;;;5075773;28;20028;-28
2024/01/25 14:17:47;;;;;;;39.97;6.77;;;;;;;;;;5075172;28;20251;-28
2024/01/25 14:20:13;;;;;;;41.23;6.40;;;;;;;;;;5075777;28;20305;-28